Time;durP1;ratioP1;P1;durP2;ratioP2;P2;SDS_P1;SDS_P2;PMS_P1;PMS_P2;Temp;Humidity;BMP_temperature;BMP_pressure;BME280_temperature;BME280_humidity;BME280_pressure;Samples;Min_cycle;Max_cycle;Signal;HPM_P1;HPM_P2
2022/02/12 00:02:21;;;;;;;;;53.75;39.50;;;;;6.94;53.50;102790.09;5041890;28;45479;-46
2022/02/12 00:04:46;;;;;;;;;45.50;38.00;;;;;6.92;53.45;102797.00;5041987;28;45371;-44
2022/02/12 00:07:11;;;;;;;;;50.50;40.25;;;;;6.81;53.33;102786.19;5041907;28;45339;-45
2022/02/12 00:09:37;;;;;;;;;47.00;40.00;;;;;6.89;53.30;102796.91;5040349;28;47039;-45
2022/02/12 00:12:03;;;;;;;;;45.00;39.50;;;;;6.87;53.45;102794.22;5041938;28;45457;-45
2022/02/12 00:14:29;;;;;;;;;51.75;38.25;;;;;6.85;53.48;102795.91;5041933;28;45334;-47
2022/02/12 00:16:54;;;;;;;;;10.00;2.00;;;;;6.80;53.38;102787.88;5041910;28;45349;-44
2022/02/12 00:19:19;;;;;;;;;54.00;41.75;;;;;6.82;53.37;102791.47;5041567;28;45335;-46
2022/02/12 00:21:45;;;;;;;;;53.00;39.00;;;;;6.80;53.43;102781.78;5040342;28;45488;-45
2022/02/12 00:24:10;;;;;;;;;46.25;38.75;;;;;6.79;53.34;102783.53;5041740;28;45235;-45
2022/02/12 00:26:36;;;;;;;;;51.25;38.75;;;;;6.77;53.64;102779.09;5040259;28;45426;-47
2022/02/12 00:29:01;;;;;;;;;41.00;35.75;;;;;6.75;53.42;102783.34;5041639;28;46266;-46
2022/02/12 00:31:26;;;;;;;;;42.00;37.50;;;;;6.74;53.56;102776.34;5040407;28;45725;-44
2022/02/12 00:33:52;;;;;;;;;50.75;39.75;;;;;6.71;53.50;102771.91;5041561;28;45154;-45
2022/02/12 00:36:17;;;;;;;;;48.25;38.00;;;;;6.70;53.46;102775.34;5041590;28;45508;-45
2022/02/12 00:38:43;;;;;;;;;50.25;38.50;;;;;6.70;53.42;102774.47;5041419;28;46291;-48
2022/02/12 00:41:09;;;;;;;;;46.75;37.50;;;;;6.66;53.43;102766.50;5041246;28;45407;-47
2022/02/12 00:43:35;;;;;;;;;49.00;39.75;;;;;6.66;53.38;102769.13;5040238;28;45446;-48
2022/02/12 00:46:00;;;;;;;;;50.00;40.75;;;;;6.67;53.34;102764.81;5041236;28;45289;-45
2022/02/12 00:48:25;;;;;;;;;49.25;38.00;;;;;6.65;53.57;102766.47;5040466;28;45414;-46
2022/02/12 00:50:53;;;;;;;;;44.00;39.00;;;;;6.59;53.51;102742.75;5041156;28;45393;-47
2022/02/12 00:53:18;;;;;;;;;43.75;37.75;;;;;6.63;53.37;102763.81;5041414;28;45308;-48
2022/02/12 00:55:44;;;;;;;;;47.00;39.50;;;;;6.61;53.59;102760.25;5039746;28;45427;-47
2022/02/12 00:58:09;;;;;;;;;50.00;35.00;;;;;6.59;53.55;102753.19;5041171;28;45455;-45
2022/02/12 01:00:34;;;;;;;;;40.00;33.25;;;;;6.59;53.70;102758.41;5040934;28;45335;-48
2022/02/12 01:03:03;;;;;;;;;23.25;20.50;;;;;6.59;53.69;102753.19;5041267;28;45965;-44
2022/02/12 01:05:28;;;;;;;;;30.25;30.00;;;;;6.58;53.62;102756.63;5040801;28;45386;-49
2022/02/12 01:07:53;;;;;;;;;30.75;28.25;;;;;6.57;53.40;102753.16;5041173;28;45213;-45
2022/02/12 01:10:19;;;;;;;;;36.00;28.50;;;;;6.54;53.55;102746.91;5039495;28;45334;-46
2022/02/12 01:12:44;;;;;;;;;41.00;32.00;;;;;6.55;53.49;102748.72;5041362;28;45219;-46
2022/02/12 01:15:10;;;;;;;;;36.25;33.00;;;;;6.54;53.67;102741.69;5040930;28;45158;-45
2022/02/12 01:17:37;;;;;;;;;31.75;26.75;;;;;6.53;53.67;102740.81;5040875;28;47039;-48
2022/02/12 01:20:03;;;;;;;;;40.25;34.50;;;;;6.52;53.63;102728.59;5040471;28;45423;-48
2022/02/12 01:22:28;;;;;;;;;38.50;34.50;;;;;6.52;53.50;102735.56;5039576;28;45313;-49
2022/02/12 01:24:54;;;;;;;;;48.25;38.00;;;;;6.50;53.60;102725.03;5040542;28;45551;-46
2022/02/12 01:27:19;;;;;;;;;33.75;32.50;;;;;6.41;53.53;102712.53;5040670;28;47050;-44
2022/02/12 01:29:44;;;;;;;;;42.25;35.00;;;;;6.47;53.60;102715.38;5040464;28;45323;-47
2022/02/12 01:32:10;;;;;;;;;44.25;37.25;;;;;6.48;53.72;102713.66;5039376;28;45287;-45
2022/02/12 01:34:37;;;;;;;;;41.25;35.50;;;;;6.48;53.62;102716.28;5040344;28;45478;-49
2022/02/12 01:37:07;;;;;;;;;44.75;37.00;;;;;6.45;53.68;102717.06;5040651;28;45240;-47
2022/02/12 01:39:33;;;;;;;;;44.25;38.75;;;;;6.45;53.67;102711.84;5040242;28;45369;-47
2022/02/12 01:41:59;;;;;;;;;47.00;38.25;;;;;6.44;53.78;102707.44;5040754;28;45347;-49
2022/02/12 01:44:43;;;;;;;;;50.50;40.50;;;;;6.43;53.67;102702.16;5040248;28;45518;-47
2022/02/12 01:47:10;;;;;;;;;42.50;35.00;;;;;6.43;53.95;102713.50;5038970;28;46062;-47
2022/02/12 01:49:36;;;;;;;;;52.50;39.75;;;;;6.41;54.04;102702.09;5038837;28;45232;-45
2022/02/12 01:52:05;;;;;;;;;47.00;39.00;;;;;6.37;53.76;102697.59;5040567;28;45426;-44
2022/02/12 01:54:31;;;;;;;;;41.25;34.75;;;;;6.40;53.75;102702.94;5040333;28;45491;-44
2022/02/12 01:56:59;;;;;;;;;41.00;36.50;;;;;6.41;53.81;102699.47;5040092;28;46227;-45
2022/02/12 01:59:25;;;;;;;;;39.00;36.75;;;;;6.37;53.72;102700.22;5040126;28;45355;-48
2022/02/12 02:01:51;;;;;;;;;38.00;35.25;;;;;6.39;53.75;102697.66;5039493;28;45215;-47
2022/02/12 02:04:17;;;;;;;;;35.50;33.75;;;;;6.39;53.98;102697.66;5040028;28;45173;-49
2022/02/12 02:06:43;;;;;;;;;38.75;35.25;;;;;6.37;53.84;102689.78;5040015;28;46048;-47
2022/02/12 02:09:09;;;;;;;;;45.75;38.00;;;;;6.37;53.71;102686.28;5040216;28;45233;-47
2022/02/12 02:11:36;;;;;;;;;35.25;30.50;;;;;6.32;53.83;102683.50;5040460;28;45462;-48
2022/02/12 02:14:03;;;;;;;;;34.75;33.75;;;;;6.37;53.83;102683.66;5040068;28;45389;-49
2022/02/12 02:16:28;;;;;;;;;37.25;32.00;;;;;6.32;53.74;102671.31;5039822;28;46055;-45
2022/02/12 02:18:54;;;;;;;;;30.50;28.00;;;;;6.33;53.79;102669.63;5039922;28;45342;-44
2022/02/12 02:21:22;;;;;;;;;33.25;31.75;;;;;6.32;54.04;102673.06;5039865;28;45537;-45
2022/02/12 02:23:47;;;;;;;;;39.25;33.00;;;;;6.28;54.06;102655.53;5039969;28;45257;-47
2022/02/12 02:26:14;;;;;;;;;29.00;28.50;;;;;6.29;54.02;102658.19;5039742;28;45289;-50
2022/02/12 02:28:40;;;;;;;;;36.00;31.00;;;;;6.30;53.86;102664.28;5039949;28;45231;-45
2022/02/12 02:31:06;;;;;;;;;40.50;34.50;;;;;6.29;54.08;102646.81;5039933;28;45515;-46
2022/02/12 02:33:32;;;;;;;;;34.50;31.25;;;;;6.28;53.85;102642.47;5039572;28;45313;-46
2022/02/12 02:35:57;;;;;;;;;34.50;31.50;;;;;6.26;54.01;102639.78;5039550;28;45343;-46
2022/02/12 02:38:24;;;;;;;;;36.00;30.00;;;;;6.26;54.05;102641.50;5039794;28;45434;-46
2022/02/12 02:40:49;;;;;;;;;36.00;30.00;;;;;6.24;54.04;102638.84;5038359;28;45396;-47
2022/02/12 02:43:15;;;;;;;;;36.50;29.00;;;;;6.24;53.95;102637.94;5038212;28;45704;-47
2022/02/12 02:45:40;;;;;;;;;35.50;31.00;;;;;6.22;54.22;102634.41;5039505;28;45185;-49
2022/02/12 02:48:09;;;;;;;;;36.25;30.50;;;;;6.21;54.07;102632.63;5039219;28;45239;-49
2022/02/12 02:56:07;;;;;;;;;22.50;21.75;;;;;6.17;53.91;102619.47;5039344;28;45162;-46
2022/02/12 02:58:36;;;;;;;;;27.75;22.00;;;;;6.17;54.02;102613.38;5039485;28;45279;-46
2022/02/12 03:01:05;;;;;;;;;32.50;28.75;;;;;6.16;54.10;102602.06;5039503;28;45299;-48
2022/02/12 03:03:30;;;;;;;;;27.00;24.00;;;;;6.12;54.13;102594.94;5039141;28;45416;-46
2022/02/12 03:05:57;;;;;;;;;26.50;23.25;;;;;6.14;54.25;102602.84;5039449;28;46224;-44
2022/02/12 03:08:23;;;;;;;;;25.50;24.25;;;;;6.13;54.15;102596.72;5039256;28;45304;-48
2022/02/12 03:10:48;;;;;;;;;27.25;23.00;;;;;6.13;54.16;102595.84;5039267;28;45347;-48
2022/02/12 03:13:14;;;;;;;;;29.25;26.75;;;;;6.12;54.23;102587.09;5042477;28;45510;-49
2022/02/12 03:15:40;;;;;;;;;28.50;25.50;;;;;6.11;54.05;102582.72;5042863;28;46037;-49
2022/02/12 03:18:06;;;;;;;;;25.75;21.50;;;;;6.10;54.06;102577.44;5042487;28;45165;-45
2022/02/12 03:20:32;;;;;;;;;24.50;21.00;;;;;6.09;54.21;102575.66;5042910;28;45403;-47
2022/02/12 03:22:58;;;;;;;;;25.75;22.25;;;;;6.08;54.10;102569.56;5042564;28;45589;-49
2022/02/12 03:25:23;;;;;;;;;22.75;22.00;;;;;6.08;54.03;102566.94;5042610;28;45225;-46
2022/02/12 03:27:57;;;;;;;;;24.50;22.25;;;;;6.04;54.24;102561.56;5042598;28;45239;-45
2022/02/12 03:30:24;;;;;;;;;26.75;20.75;;;;;6.07;54.14;102559.06;5041454;28;45307;-44
2022/02/12 03:32:49;;;;;;;;;24.75;21.25;;;;;6.05;54.13;102561.66;5042249;28;45445;-45
2022/02/12 03:35:15;;;;;;;;;28.00;23.00;;;;;6.04;54.06;102558.97;5042420;28;45579;-45
2022/02/12 03:37:40;;;;;;;;;24.25;22.25;;;;;6.03;54.17;102554.59;5042462;28;45284;-44
2022/02/12 03:40:06;;;;;;;;;30.75;25.50;;;;;6.01;54.14;102563.25;5042567;28;45504;-45
2022/02/12 03:42:32;;;;;;;;;25.25;22.75;;;;;6.02;54.07;102553.69;5042258;28;45322;-44
2022/02/12 03:44:57;;;;;;;;;25.25;24.50;;;;;6.00;54.22;102544.94;5042162;28;45587;-46
2022/02/12 03:47:22;;;;;;;;;25.75;24.75;;;;;5.98;54.15;102541.34;5042010;28;45391;-44
2022/02/12 03:49:48;;;;;;;;;23.00;21.50;;;;;5.99;54.08;102543.16;5042255;28;45341;-45
2022/02/12 03:52:13;;;;;;;;;22.75;22.50;;;;;5.97;54.15;102548.28;5042145;28;45298;-46
2022/02/12 03:54:38;;;;;;;;;28.50;24.00;;;;;5.95;54.08;102541.22;5041958;28;46263;-44
2022/02/12 03:57:04;;;;;;;;;27.25;26.00;;;;;5.93;53.93;102538.56;5040791;28;45354;-48
2022/02/12 03:59:29;;;;;;;;;25.00;23.00;;;;;5.94;54.34;102542.09;5042373;28;45374;-44
2022/02/12 04:01:54;;;;;;;;;27.00;23.75;;;;;5.94;54.30;102542.09;5042009;28;45265;-44
2022/02/12 04:04:20;;;;;;;;;26.25;24.25;;;;;5.92;54.02;102535.91;5041955;28;45418;-45
2022/02/12 04:06:45;;;;;;;;;20.50;18.00;;;;;5.91;54.21;102529.84;5041951;28;45327;-44
2022/02/12 04:09:10;;;;;;;;;26.50;24.00;;;;;5.89;54.26;102528.88;5042352;28;45223;-44
2022/02/12 04:11:36;;;;;;;;;27.00;22.75;;;;;5.89;53.86;102528.88;5041820;28;45419;-45
2022/02/12 04:14:02;;;;;;;;;30.75;22.50;;;;;5.88;54.27;102528.84;5041861;28;46203;-44
2022/02/12 04:16:27;;;;;;;;;25.25;24.00;;;;;5.85;54.49;102514.84;5041833;28;45318;-45
2022/02/12 04:18:53;;;;;;;;;31.75;28.25;;;;;5.81;54.44;102509.44;5041850;28;45706;-47
2022/02/12 04:21:18;;;;;;;;;28.25;24.75;;;;;5.83;53.97;102506.06;5041752;28;45478;-48
2022/02/12 04:23:43;;;;;;;;;29.75;24.25;;;;;5.82;54.37;102499.09;5040650;28;45253;-45
2022/02/12 04:26:09;;;;;;;;;21.50;15.75;;;;;5.79;54.27;102492.88;5041512;28;45271;-46
2022/02/12 04:28:37;;;;;;;;;22.75;17.50;;;;;5.78;54.34;102488.50;5041801;28;45267;-45
2022/02/12 04:31:05;;;;;;;;;21.00;20.25;;;;;5.79;54.22;102492.88;5041541;28;45252;-46
2022/02/12 04:33:31;;;;;;;;;24.75;21.00;;;;;5.78;54.46;102491.09;5041300;28;46057;-44
2022/02/12 04:35:56;;;;;;;;;20.75;20.25;;;;;5.78;54.43;102491.09;5021036;28;45276;-44
2022/02/12 04:38:22;;;;;;;;;23.50;19.50;;;;;5.74;54.31;102479.66;5041841;28;45323;-45
2022/02/12 04:40:47;;;;;;;;;18.75;18.75;;;;;5.74;54.44;102481.41;5041457;28;45355;-44
2022/02/12 04:43:13;;;;;;;;;21.25;20.25;;;;;5.73;54.28;102484.84;5041258;28;45406;-44
2022/02/12 04:45:38;;;;;;;;;25.00;19.75;;;;;5.73;54.50;102485.72;5041538;28;45318;-45
2022/02/12 04:48:04;;;;;;;;;23.00;21.00;;;;;5.71;54.36;102482.19;5041301;28;45589;-46
2022/02/12 04:50:29;;;;;;;;;18.75;15.75;;;;;5.70;54.32;102476.06;5055348;28;45239;-46
2022/02/12 04:52:55;;;;;;;;;20.75;20.25;;;;;5.68;54.28;102477.72;5061409;28;46268;-45
2022/02/12 04:55:20;;;;;;;;;24.50;20.25;;;;;5.65;54.36;102475.03;5061200;28;45335;-46
2022/02/12 04:57:46;;;;;;;;;21.00;18.75;;;;;5.66;54.25;102478.50;5061680;28;45318;-47
2022/02/12 05:00:12;;;;;;;;;19.75;18.25;;;;;5.64;54.51;102477.59;5052603;28;45490;-47
2022/02/12 05:02:37;;;;;;;;;20.25;17.00;;;;;5.61;54.40;102481.00;5027870;28;46750;-47
2022/02/12 05:05:04;;;;;;;;;15.25;13.75;;;;;5.62;54.31;102481.84;5040841;28;45330;-45
2022/02/12 05:07:29;;;;;;;;;17.25;16.00;;;;;5.62;54.26;102474.03;5041593;28;45291;-44
2022/02/12 05:09:54;;;;;;;;;15.00;14.00;;;;;5.61;54.35;102482.69;5039487;28;45543;-45
2022/02/12 05:12:20;;;;;;;;;17.00;14.50;;;;;5.57;54.19;102473.00;5041003;28;46240;-46
2022/02/12 05:14:45;;;;;;;;;14.00;13.50;;;;;5.58;54.54;102488.69;5041071;28;45210;-48
2022/02/12 05:17:11;;;;;;;;;17.50;14.00;;;;;5.56;54.53;102472.13;5040952;28;45228;-46
2022/02/12 05:19:36;;;;;;;;;13.25;12.75;;;;;5.54;54.34;102465.97;5040677;28;45185;-45
2022/02/12 05:22:01;;;;;;;;;12.25;10.50;;;;;5.53;54.57;102480.72;5040580;28;45414;-44
2022/02/12 05:24:27;;;;;;;;;19.25;14.25;;;;;5.51;54.34;102464.13;5039455;28;45391;-45
2022/02/12 05:26:52;;;;;;;;;15.00;13.75;;;;;5.47;54.34;102467.47;5040865;28;45154;-45
2022/02/12 05:29:19;;;;;;;;;16.25;14.50;;;;;5.49;54.50;102472.75;5040652;28;45237;-46
2022/02/12 05:31:44;;;;;;;;;14.25;12.25;;;;;5.48;54.39;102461.41;5040564;28;45308;-44
2022/02/12 05:34:09;;;;;;;;;14.50;14.00;;;;;5.47;54.67;102458.75;5040209;28;45269;-44
2022/02/12 05:36:35;;;;;;;;;16.50;16.50;;;;;5.45;54.62;102450.88;5040740;28;45244;-45
2022/02/12 05:39:02;;;;;;;;;13.50;12.50;;;;;5.42;54.40;102444.66;5039302;28;45508;-44
2022/02/12 05:41:28;;;;;;;;;17.75;15.75;;;;;5.42;54.57;102448.19;5040430;28;46905;-45
2022/02/12 05:43:53;;;;;;;;;15.75;12.00;;;;;5.41;54.69;102451.63;5040355;28;45330;-45
2022/02/12 05:46:18;;;;;;;;;15.50;14.75;;;;;5.40;54.56;102444.63;5040519;28;45475;-46
2022/02/12 05:48:45;;;;;;;;;15.50;14.25;;;;;5.38;54.27;102446.28;5038886;28;45425;-45
2022/02/12 05:51:10;;;;;;;;;17.00;13.00;;;;;5.36;54.79;102447.97;5040305;28;46216;-45
2022/02/12 05:53:36;;;;;;;;;11.75;11.50;;;;;5.37;54.16;102444.50;5038995;28;45252;-44
2022/02/12 05:56:03;;;;;;;;;17.50;14.75;;;;;5.36;54.42;102445.34;5039144;28;45368;-44
2022/02/12 05:58:28;;;;;;;;;12.75;9.00;;;;;5.36;54.66;102440.16;5040412;28;45271;-48
2022/02/12 06:00:53;;;;;;;;;13.00;12.00;;;;;5.35;54.29;102434.03;5039975;28;46207;-46
2022/02/12 06:03:19;;;;;;;;;10.25;9.50;;;;;5.33;54.32;102427.00;5039947;28;45407;-46
2022/02/12 06:05:45;;;;;;;;;13.25;13.00;;;;;5.33;54.42;102425.28;5040261;28;45181;-45
2022/02/12 06:08:10;;;;;;;;;16.00;15.50;;;;;5.32;54.24;102420.91;5040133;28;45375;-45
2022/02/12 06:10:36;;;;;;;;;14.75;13.00;;;;;5.32;54.56;102414.78;5039933;28;45331;-45
2022/02/12 06:13:02;;;;;;;;;14.00;13.25;;;;;5.31;54.38;102415.63;5040159;28;45264;-45
2022/02/12 06:15:27;;;;;;;;;16.25;13.00;;;;;5.30;54.46;102408.66;5040226;28;45327;-46
2022/02/12 06:17:52;;;;;;;;;21.75;15.50;;;;;5.29;54.67;102412.09;5039809;28;45310;-46
2022/02/12 06:20:18;;;;;;;;;19.25;15.00;;;;;5.28;54.22;102413.81;5039758;28;46062;-47
2022/02/12 06:22:43;;;;;;;;;10.75;8.50;;;;;5.26;54.53;102399.84;5040115;28;45366;-45
2022/02/12 06:25:10;;;;;;;;;22.00;17.00;;;;;5.23;54.31;102399.72;5039861;28;45413;-49
2022/02/12 06:27:35;;;;;;;;;20.00;14.00;;;;;5.21;54.53;102401.41;5039925;28;45307;-45
2022/02/12 06:30:01;;;;;;;;;21.50;14.75;;;;;5.24;54.55;102411.03;5039580;28;45212;-44
2022/02/12 06:32:27;;;;;;;;;9.00;8.00;;;;;5.24;54.67;102408.44;5038712;28;45276;-44
2022/02/12 06:34:56;;;;;;;;;17.00;16.25;;;;;5.20;54.55;102404.84;5039592;28;45283;-45
2022/02/12 06:37:21;;;;;;;;;17.25;16.00;;;;;5.08;54.57;102378.34;5039778;28;45733;-44
2022/02/12 06:39:47;;;;;;;;;15.75;15.00;;;;;5.19;54.38;102400.44;5039397;28;46271;-44
2022/02/12 06:42:14;;;;;;;;;18.75;15.25;;;;;5.17;54.38;102402.09;5039647;28;45264;-54
2022/02/12 06:44:39;;;;;;;;;18.75;17.00;;;;;5.15;54.58;102401.19;5039607;28;45370;-45
2022/02/12 06:47:05;;;;;;;;;14.75;13.25;;;;;5.13;54.46;102395.91;5041067;28;45372;-48
2022/02/12 06:49:30;;;;;;;;;19.50;16.50;;;;;5.12;54.72;102391.53;5042852;28;47214;-47
2022/02/12 06:51:56;;;;;;;;;19.50;17.00;;;;;5.12;54.36;102399.34;5043164;28;45313;-46
2022/02/12 06:54:21;;;;;;;;;18.50;18.50;;;;;5.08;54.53;102392.28;5043116;28;45677;-46
2022/02/12 06:56:47;;;;;;;;;16.50;16.50;;;;;5.09;54.85;102395.75;5043297;28;45232;-46
2022/02/12 06:59:12;;;;;;;;;19.50;19.00;;;;;5.07;54.36;102400.00;5042843;28;45295;-47
2022/02/12 07:01:37;;;;;;;;;17.75;17.50;;;;;5.02;54.61;102397.25;5042985;28;45232;-46
2022/02/12 07:04:03;;;;;;;;;19.75;15.25;;;;;5.03;54.75;102401.63;5042847;28;45484;-45
2022/02/12 07:06:29;;;;;;;;;21.25;19.50;;;;;5.02;54.63;102407.69;5041776;28;45288;-49
2022/02/12 07:08:55;;;;;;;;;22.50;21.50;;;;;5.00;54.33;102407.63;5042757;28;46182;-45
2022/02/12 07:11:20;;;;;;;;;15.75;15.50;;;;;4.99;54.46;102402.34;5043010;28;45523;-47
2022/02/12 07:13:46;;;;;;;;;19.25;18.50;;;;;4.97;54.55;102397.09;5042888;28;45350;-48
2022/02/12 07:16:11;;;;;;;;;20.50;18.75;;;;;4.92;54.63;102392.53;5042795;28;45453;-44
2022/02/12 07:18:38;;;;;;;;;18.50;16.75;;;;;4.94;54.61;102402.19;5042364;28;45431;-45
2022/02/12 07:21:03;;;;;;;;;19.00;14.00;;;;;4.90;54.38;102407.25;5042832;28;45265;-44
2022/02/12 07:23:29;;;;;;;;;17.25;13.50;;;;;4.91;54.74;102414.25;5042606;28;45386;-47
2022/02/12 07:25:54;;;;;;;;;17.25;16.75;;;;;4.88;54.70;102409.81;5041319;28;45341;-47
2022/02/12 07:28:20;;;;;;;;;16.75;14.75;;;;;4.88;54.90;102407.19;5042514;28;45425;-46
2022/02/12 07:30:47;;;;;;;;;13.50;12.00;;;;;4.85;54.42;102407.94;5042657;28;45252;-45
2022/02/12 07:33:13;;;;;;;;;13.00;11.50;;;;;4.84;54.48;102406.19;5042367;28;45319;-49
2022/02/12 07:35:38;;;;;;;;;13.75;12.75;;;;;4.81;54.75;102398.25;5042526;28;45231;-47
2022/02/12 07:38:06;;;;;;;;;14.75;13.50;;;;;4.80;54.49;102399.09;5042329;28;45329;-45
2022/02/12 07:40:31;;;;;;;;;16.75;14.25;;;;;4.79;54.74;102402.53;5042378;28;45390;-45
2022/02/12 07:42:57;;;;;;;;;17.00;16.00;;;;;4.78;54.30;102398.16;5042235;28;45445;-48
2022/02/12 07:45:24;;;;;;;;;17.50;14.75;;;;;4.76;54.86;102405.03;5042399;28;45331;-47
2022/02/12 07:47:50;;;;;;;;;17.75;14.50;;;;;4.76;54.76;102398.94;5040610;28;48138;-46
2022/02/12 07:50:16;;;;;;;;;17.00;13.00;;;;;4.77;54.95;102403.28;5042191;28;45325;-46
2022/02/12 07:52:43;;;;;;;;;23.75;18.00;;;;;4.72;54.90;102393.59;5042390;28;45219;-47
2022/02/12 07:55:13;;;;;;;;;20.00;19.00;;;;;4.75;54.71;102397.16;5042125;28;45350;-46
2022/02/12 07:57:38;;;;;;;;;18.00;18.00;;;;;4.74;54.98;102401.47;5041331;28;45437;-49
2022/02/12 08:00:05;;;;;;;;;18.50;18.25;;;;;4.75;54.65;102404.97;5041332;28;45318;-44
2022/02/12 08:02:31;;;;;;;;;20.25;18.75;;;;;4.73;54.68;102402.31;5042064;28;45304;-46
2022/02/12 08:04:56;;;;;;;;;20.50;17.00;;;;;4.74;54.73;102392.78;5041784;28;45189;-45
2022/02/12 08:07:29;;;;;;;;;16.50;14.25;;;;;4.73;55.00;102399.72;5041840;28;45542;-46
2022/02/12 08:09:58;;;;;;;;;19.50;17.75;;;;;4.72;54.79;102398.81;5041702;28;45264;-49
2022/02/12 08:12:24;;;;;;;;;15.50;15.50;;;;;4.71;54.92;102397.03;5042178;28;45243;-46
2022/02/12 08:14:53;;;;;;;;;18.75;17.75;;;;;4.73;54.91;102407.53;5041772;28;45465;-46
2022/02/12 08:17:20;;;;;;;;;18.25;17.00;;;;;4.74;54.83;102414.47;5041937;28;46174;-44
2022/02/12 08:19:46;;;;;;;;;14.25;13.50;;;;;4.74;54.98;102409.28;5041572;28;45294;-45
2022/02/12 08:22:12;;;;;;;;;22.00;17.50;;;;;4.75;54.74;102407.56;5041763;28;45236;-47
2022/02/12 08:24:38;;;;;;;;;20.00;14.50;;;;;4.71;54.98;102399.63;5041793;28;45316;-47
2022/02/12 08:27:05;;;;;;;;;23.50;18.00;;;;;4.72;54.66;102396.19;5041737;28;45340;-47
2022/02/12 08:29:31;;;;;;;;;15.00;14.50;;;;;4.78;54.72;102402.47;5041495;28;45138;-48
2022/02/12 08:31:58;;;;;;;;;19.75;18.00;;;;;4.80;54.84;102404.28;5041528;28;45361;-44
2022/02/12 08:34:24;;;;;;;;;18.75;17.50;;;;;4.78;55.09;102392.03;5041290;28;45528;-49
2022/02/12 08:36:50;;;;;;;;;23.50;19.00;;;;;4.82;54.79;102394.81;5041737;28;46296;-47
2022/02/12 08:39:16;;;;;;;;;20.25;19.75;;;;;4.81;54.85;102389.56;5041252;28;45252;-47
2022/02/12 08:41:42;;;;;;;;;20.50;17.75;;;;;4.85;54.96;102389.72;5041424;28;45224;-46
2022/02/12 08:44:07;;;;;;;;;24.75;21.75;;;;;4.87;55.35;102395.88;5041327;28;45343;-47
2022/02/12 08:46:32;;;;;;;;;24.50;21.00;;;;;4.80;55.13;102373.03;5041492;28;45303;-48
2022/02/12 08:48:58;;;;;;;;;20.50;16.25;;;;;4.93;55.02;102391.72;5041098;28;45348;-47
2022/02/12 08:51:24;;;;;;;;;18.75;18.00;;;;;4.97;54.71;102393.59;5041517;28;45452;-47
2022/02/12 08:53:50;;;;;;;;;18.50;16.25;;;;;5.01;54.99;102387.66;5041132;28;45231;-45
2022/02/12 08:56:15;;;;;;;;;18.50;17.25;;;;;5.02;54.84;102379.91;5039954;28;45484;-44
2022/02/12 08:58:41;;;;;;;;;24.50;19.50;;;;;5.11;54.97;102381.94;5041071;28;45363;-46
2022/02/12 09:01:06;;;;;;;;;22.00;21.25;;;;;5.15;55.10;102376.00;5039864;28;45537;-45
2022/02/12 09:03:32;;;;;;;;;21.00;19.75;;;;;5.19;55.12;102380.50;5040799;28;45220;-45
2022/02/12 09:06:00;;;;;;;;;21.75;20.50;;;;;5.23;54.83;102367.56;5041071;28;46200;-47
2022/02/12 09:08:26;;;;;;;;;15.50;14.00;;;;;5.28;55.16;102373.81;5041071;28;45315;-48
2022/02/12 09:10:51;;;;;;;;;17.75;15.75;;;;;5.33;55.10;102382.66;5040564;28;45366;-47
2022/02/12 09:13:17;;;;;;;;;20.25;18.00;;;;;5.38;54.94;102375.88;5040902;28;45244;-46
2022/02/12 09:15:42;;;;;;;;;16.75;14.25;;;;;5.44;55.17;102372.59;5039885;28;47272;-46
2022/02/12 09:18:08;;;;;;;;;21.75;16.00;;;;;5.51;55.38;102374.59;5039248;28;45369;-46
2022/02/12 09:20:33;;;;;;;;;17.00;15.25;;;;;5.56;55.18;102373.00;5041181;28;45371;-46
2022/02/12 09:22:58;;;;;;;;;21.75;18.75;;;;;5.63;55.04;102366.25;5040851;28;45397;-45
2022/02/12 09:25:24;;;;;;;;;19.75;14.25;;;;;5.69;55.06;102361.25;5039386;28;46988;-46
2022/02/12 09:27:49;;;;;;;;;19.50;14.50;;;;;5.77;55.26;102359.75;5041001;28;45305;-46
2022/02/12 09:30:14;;;;;;;;;15.00;13.75;;;;;5.83;55.19;102343.41;5039701;28;45504;-45
2022/02/12 09:32:40;;;;;;;;;16.75;16.00;;;;;5.96;55.15;102355.09;5040571;28;45445;-45
2022/02/12 09:35:06;;;;;;;;;22.25;19.00;;;;;6.06;55.05;102351.97;5040533;28;46151;-47
2022/02/12 09:37:31;;;;;;;;;22.25;16.50;;;;;6.15;55.21;102346.13;5040706;28;45388;-46
2022/02/12 09:39:56;;;;;;;;;17.00;16.00;;;;;6.26;55.17;102338.63;5040681;28;45324;-49
2022/02/12 09:42:22;;;;;;;;;18.50;16.50;;;;;6.34;55.03;102340.63;5019697;28;45492;-48
2022/02/12 09:44:47;;;;;;;;;15.00;10.50;;;;;6.42;55.33;102346.06;5040360;28;46118;-47
2022/02/12 09:47:46;;;;;;;;;14.25;12.75;;;;;6.57;55.27;102340.41;5040314;28;45490;-47
2022/02/12 09:50:13;;;;;;;;;16.75;15.00;;;;;6.70;55.23;102344.22;5039365;28;45425;-50
2022/02/12 09:52:43;;;;;;;;;12.75;12.75;;;;;6.81;55.19;102341.91;5040304;28;45330;-46
2022/02/12 09:55:09;;;;;;;;;13.00;10.50;;;;;6.94;55.02;102341.41;5040082;28;46360;-50
2022/02/12 09:57:34;;;;;;;;;17.00;13.25;;;;;7.04;54.89;102346.88;5040024;28;45350;-49
2022/02/12 10:00:04;;;;;;;;;13.25;13.25;;;;;7.18;55.01;102336.75;5040445;28;45302;-47
2022/02/12 10:02:30;;;;;;;;;15.75;12.00;;;;;7.30;54.91;102331.84;5040183;28;45481;-49
2022/02/12 10:05:23;;;;;;;;;17.50;14.00;;;;;7.47;54.81;102327.91;5039967;28;46123;-46
2022/02/12 10:08:12;;;;;;;;;14.25;13.00;;;;;7.63;55.19;102325.66;5040291;28;45301;-45
2022/02/12 10:10:38;;;;;;;;;17.50;12.75;;;;;7.76;54.86;102309.38;5040022;28;45336;-47
2022/02/12 10:13:21;;;;;;;;;11.75;11.75;;;;;7.93;54.89;102321.97;5040127;28;45463;-45
2022/02/12 10:15:54;;;;;;;;;19.00;11.50;;;;;8.05;54.70;102311.75;5039975;28;46226;-47
2022/02/12 10:18:21;;;;;;;;;12.75;10.75;;;;;8.17;54.82;102315.50;5039733;28;45328;-48
2022/02/12 10:20:47;;;;;;;;;11.00;10.25;;;;;8.27;54.84;102309.59;5038289;28;45315;-45
2022/02/12 10:23:18;;;;;;;;;13.00;11.00;;;;;8.35;54.04;102312.34;5039454;28;45635;-53
2022/02/12 10:25:49;;;;;;;;;13.00;9.50;;;;;8.40;54.45;102300.22;5039659;28;46201;-45
2022/02/12 10:28:17;;;;;;;;;13.00;12.00;;;;;8.51;54.33;102305.72;5039747;28;45354;-47
2022/02/12 10:30:47;;;;;;;;;13.75;13.00;;;;;8.60;54.38;102293.69;5039795;28;45457;-45
2022/02/12 10:33:13;;;;;;;;;12.00;10.00;;;;;8.68;54.47;102300.78;5038276;28;45865;-47
2022/02/12 10:35:40;;;;;;;;;16.75;11.75;;;;;8.74;54.31;102288.69;5039697;28;45762;-46
2022/02/12 10:38:10;;;;;;;;;14.75;12.25;;;;;8.78;54.40;102287.88;5039617;28;45260;-47
2022/02/12 10:40:37;;;;;;;;;13.00;11.50;;;;;8.89;54.26;102279.31;5039661;28;45325;-46
2022/02/12 10:43:04;;;;;;;;;10.00;10.00;;;;;8.96;54.13;102270.72;5039254;28;45427;-49
2022/02/12 10:45:30;;;;;;;;;14.00;11.75;;;;;9.05;54.16;102270.00;5039565;28;46224;-47
2022/02/12 10:47:57;;;;;;;;;9.25;7.25;;;;;9.13;54.17;102270.09;5039160;28;45278;-48
2022/02/12 10:50:24;;;;;;;;;13.25;11.00;;;;;9.21;54.00;102279.00;5039494;28;45374;-46
2022/02/12 10:52:51;;;;;;;;;8.50;8.00;;;;;9.26;53.75;102272.09;5039638;28;45237;-48
2022/02/12 10:55:34;;;;;;;;;11.00;9.25;;;;;9.33;53.68;102262.56;5039144;28;46350;-47
2022/02/12 10:58:10;;;;;;;;;13.75;12.00;;;;;9.39;53.57;102267.91;5039667;28;45450;-48
2022/02/12 11:00:39;;;;;;;;;10.25;8.50;;;;;9.43;53.53;102262.72;5039400;28;45471;-47
2022/02/12 11:03:08;;;;;;;;;9.50;9.25;;;;;9.47;53.58;102249.63;5039169;28;45601;-46
2022/02/12 11:05:35;;;;;;;;;14.00;12.00;;;;;9.52;53.52;102247.97;5039219;28;45279;-49
2022/02/12 11:08:03;;;;;;;;;14.75;12.25;;;;;9.55;53.33;102237.53;5039249;28;45163;-45
2022/02/12 11:10:28;;;;;;;;;15.75;13.00;;;;;9.60;53.54;102256.84;5039152;28;45332;-47
2022/02/12 11:12:56;;;;;;;;;12.75;11.00;;;;;9.62;52.95;102234.09;5039230;28;45442;-46
2022/02/12 11:15:22;;;;;;;;;12.25;11.50;;;;;9.65;53.11;102235.88;5039181;28;47109;-48
2022/02/12 11:17:48;;;;;;;;;8.50;7.75;;;;;9.70;52.71;102232.47;5039026;28;45285;-45
2022/02/12 11:20:15;;;;;;;;;11.25;9.25;;;;;9.70;52.67;102224.59;5039214;28;45234;-48